Huxford, AL (36543)

1:28 AM CDT on July 24, 2016 (GMT -0500)
B.E.C. | | Change Station

Elev 272 ft 31.07 °N, 87.37 °W | Updated 13 minutes ago

Clear
Clear
75.7 °F
Feels Like 74 °F
N
0.0
Wind Variable Wind from SW
Gusts 0.0 mph

Today
High -- | Low -- °F
--% Chance of Precip.
Yesterday
High -- | Low -- °F
Precip. -- in
Pressure 30.00 in
Visibility 8.0 miles
Clouds Clear
Heat Index 74 °F
Dew Point 76 °F
Humidity 100%
Rainfall 0.00 in
Snow Depth Not available.
6:01 AM 7:50 PM
Waning Gibbous, 79% visible
METAR KGZH 240553Z AUTO 00000KT 8SM CLR 24/23 A3001 RMK AO2 SLP157 T02390233 10272 20239 403390222 50000 TSNO
Pressure 30.00 in
Visibility 8.0 miles
Clouds Clear
Heat Index 74 °F
Dew Point 76 °F
Humidity 100%
Rainfall 0.00 in
Snow Depth Not available.
6:01 AM 7:50 PM
Waning Gibbous, 79% visible
METAR KGZH 240553Z AUTO 00000KT 8SM CLR 24/23 A3001 RMK AO2 SLP157 T02390233 10272 20239 403390222 50000 TSNO

10-Day Weather Forecast

Almanac

Astronomy

Jul. 24, 2016 Rise Set
Actual Time
Civil Twilight
Nautical Twilight
Astronomical Twilight
Moon
Length of Visible Light
Length of Day
Tomorrow will be .
, % of the Moon is Illuminated

Today's Extremes

State Highs State Lows

Community

WunderPhotos

Upload Photos

1,927,038 photos uploaded!

WunderBlog® & News

Nearby

Air Quality

  Air Quality AQ Index Pollutant
Not available.

Snow Depth

Station Depth Elevation

Earthquake Activity

City Distance Mag. Time & Date
Minimum magnitude displayed is 2.5.

Coastal Water Temperatures

Place Temperature

Stations

Nearby Weather Stations

Station Location Temp. Windchill Dew Point Humidity Wind Precip. Elev Updated Type
                   

Watches & Warnings

There are currently no watches in effect.